sensor_id;sensor_type;location;lat;lon;timestamp;temperature;humidity
52731;DHT22;38624;53.242;6.974;2023-01-23T00:01:44;2.70;99.90
52731;DHT22;38624;53.242;6.974;2023-01-23T00:04:12;3.00;99.90
52731;DHT22;38624;53.242;6.974;2023-01-23T00:06:38;3.50;99.90
52731;DHT22;38624;53.242;6.974;2023-01-23T00:09:05;2.70;99.90
52731;DHT22;38624;53.242;6.974;2023-01-23T00:11:30;3.40;99.90
52731;DHT22;38624;53.242;6.974;2023-01-23T00:13:56;2.70;99.90
52731;DHT22;38624;53.242;6.974;2023-01-23T00:16:22;2.70;99.90
52731;DHT22;38624;53.242;6.974;2023-01-23T00:18:48;2.70;99.90
52731;DHT22;38624;53.242;6.974;2023-01-23T00:21:15;2.70;99.90
52731;DHT22;38624;53.242;6.974;2023-01-23T00:23:41;3.20;99.90
52731;DHT22;38624;53.242;6.974;2023-01-23T00:26:09;3.10;99.90
52731;DHT22;38624;53.242;6.974;2023-01-23T00:28:35;3.30;99.90
52731;DHT22;38624;53.242;6.974;2023-01-23T00:31:02;2.70;99.90
52731;DHT22;38624;53.242;6.974;2023-01-23T00:33:27;2.90;99.90
52731;DHT22;38624;53.242;6.974;2023-01-23T00:35:53;3.10;99.90
52731;DHT22;38624;53.242;6.974;2023-01-23T00:38:19;2.70;99.90
52731;DHT22;38624;53.242;6.974;2023-01-23T00:40:44;2.70;99.90
52731;DHT22;38624;53.242;6.974;2023-01-23T00:43:10;3.10;99.90
52731;DHT22;38624;53.242;6.974;2023-01-23T00:45:36;3.20;99.90
52731;DHT22;38624;53.242;6.974;2023-01-23T00:48:02;2.70;99.90
52731;DHT22;38624;53.242;6.974;2023-01-23T00:50:28;2.70;99.90
52731;DHT22;38624;53.242;6.974;2023-01-23T00:52:53;2.70;99.90
52731;DHT22;38624;53.242;6.974;2023-01-23T00:55:19;3.60;99.90
52731;DHT22;38624;53.242;6.974;2023-01-23T00:57:44;3.20;99.90
52731;DHT22;38624;53.242;6.974;2023-01-23T01:00:10;3.50;99.90
52731;DHT22;38624;53.242;6.974;2023-01-23T01:02:36;2.70;99.90
52731;DHT22;38624;53.242;6.974;2023-01-23T01:05:01;2.70;99.90
52731;DHT22;38624;53.242;6.974;2023-01-23T01:07:27;2.70;99.90
52731;DHT22;38624;53.242;6.974;2023-01-23T01:09:53;3.10;99.90
52731;DHT22;38624;53.242;6.974;2023-01-23T01:12:18;3.30;99.90
52731;DHT22;38624;53.242;6.974;2023-01-23T01:14:44;3.20;99.90
52731;DHT22;38624;53.242;6.974;2023-01-23T01:17:09;2.80;99.90
52731;DHT22;38624;53.242;6.974;2023-01-23T01:19:35;2.70;99.90
52731;DHT22;38624;53.242;6.974;2023-01-23T01:22:01;2.70;99.90
52731;DHT22;38624;53.242;6.974;2023-01-23T01:24:26;2.80;99.90
52731;DHT22;38624;53.242;6.974;2023-01-23T01:26:52;3.20;99.90
52731;DHT22;38624;53.242;6.974;2023-01-23T01:29:18;2.70;99.90
52731;DHT22;38624;53.242;6.974;2023-01-23T01:31:43;2.70;99.90
52731;DHT22;38624;53.242;6.974;2023-01-23T01:34:09;3.30;99.90
52731;DHT22;38624;53.242;6.974;2023-01-23T01:36:34;2.70;99.90
52731;DHT22;38624;53.242;6.974;2023-01-23T01:39:00;2.70;99.90
52731;DHT22;38624;53.242;6.974;2023-01-23T01:41:26;2.70;99.90
52731;DHT22;38624;53.242;6.974;2023-01-23T01:43:51;3.20;99.90
52731;DHT22;38624;53.242;6.974;2023-01-23T01:46:25;2.70;99.90
52731;DHT22;38624;53.242;6.974;2023-01-23T01:49:08;2.60;99.90
52731;DHT22;38624;53.242;6.974;2023-01-23T01:56:25;3.30;99.90
52731;DHT22;38624;53.242;6.974;2023-01-23T01:58:52;2.60;99.90
52731;DHT22;38624;53.242;6.974;2023-01-23T02:01:18;2.60;99.90
52731;DHT22;38624;53.242;6.974;2023-01-23T02:03:44;3.00;99.90
52731;DHT22;38624;53.242;6.974;2023-01-23T02:06:10;3.20;99.90
52731;DHT22;38624;53.242;6.974;2023-01-23T02:11:22;2.60;99.90
52731;DHT22;38624;53.242;6.974;2023-01-23T02:13:48;2.60;99.90
52731;DHT22;38624;53.242;6.974;2023-01-23T02:16:16;3.50;99.90
52731;DHT22;38624;53.242;6.974;2023-01-23T02:18:43;2.60;99.90
52731;DHT22;38624;53.242;6.974;2023-01-23T02:21:12;2.60;99.90
52731;DHT22;38624;53.242;6.974;2023-01-23T02:23:43;2.60;99.90
52731;DHT22;38624;53.242;6.974;2023-01-23T02:26:13;2.60;99.90
52731;DHT22;38624;53.242;6.974;2023-01-23T02:28:42;2.70;99.90
52731;DHT22;38624;53.242;6.974;2023-01-23T02:31:08;2.90;99.90
52731;DHT22;38624;53.242;6.974;2023-01-23T02:35:59;3.50;99.90
52731;DHT22;38624;53.242;6.974;2023-01-23T02:38:26;2.60;99.90
52731;DHT22;38624;53.242;6.974;2023-01-23T02:40:52;3.20;99.90
52731;DHT22;38624;53.242;6.974;2023-01-23T02:43:19;3.20;99.90
52731;DHT22;38624;53.242;6.974;2023-01-23T02:45:47;2.60;99.90
52731;DHT22;38624;53.242;6.974;2023-01-23T02:48:12;3.20;99.90
52731;DHT22;38624;53.242;6.974;2023-01-23T02:50:38;3.30;99.90
52731;DHT22;38624;53.242;6.974;2023-01-23T02:53:04;2.60;99.90
52731;DHT22;38624;53.242;6.974;2023-01-23T02:55:29;3.20;99.90
52731;DHT22;38624;53.242;6.974;2023-01-23T02:57:57;2.50;99.90
52731;DHT22;38624;53.242;6.974;2023-01-23T03:00:43;3.10;99.90
52731;DHT22;38624;53.242;6.974;2023-01-23T03:03:09;3.10;99.90
52731;DHT22;38624;53.242;6.974;2023-01-23T03:05:34;3.00;99.90
52731;DHT22;38624;53.242;6.974;2023-01-23T03:08:00;2.60;99.90
52731;DHT22;38624;53.242;6.974;2023-01-23T03:10:26;3.20;99.90
52731;DHT22;38624;53.242;6.974;2023-01-23T03:12:52;2.60;99.90
52731;DHT22;38624;53.242;6.974;2023-01-23T03:15:18;2.50;99.90
52731;DHT22;38624;53.242;6.974;2023-01-23T03:17:43;3.40;99.90
52731;DHT22;38624;53.242;6.974;2023-01-23T03:20:09;2.50;99.90
52731;DHT22;38624;53.242;6.974;2023-01-23T03:22:35;2.50;99.90
52731;DHT22;38624;53.242;6.974;2023-01-23T03:25:01;2.60;99.90
52731;DHT22;38624;53.242;6.974;2023-01-23T03:27:26;2.60;99.90
52731;DHT22;38624;53.242;6.974;2023-01-23T03:29:52;3.30;99.90
52731;DHT22;38624;53.242;6.974;2023-01-23T03:32:36;2.90;99.90
52731;DHT22;38624;53.242;6.974;2023-01-23T03:35:03;3.70;99.90
52731;DHT22;38624;53.242;6.974;2023-01-23T03:37:29;2.50;99.90
52731;DHT22;38624;53.242;6.974;2023-01-23T03:39:55;2.50;99.90
52731;DHT22;38624;53.242;6.974;2023-01-23T03:42:39;2.80;99.90
52731;DHT22;38624;53.242;6.974;2023-01-23T03:45:05;3.70;99.90
52731;DHT22;38624;53.242;6.974;2023-01-23T03:47:31;2.50;99.90
52731;DHT22;38624;53.242;6.974;2023-01-23T03:49:56;2.50;99.90
52731;DHT22;38624;53.242;6.974;2023-01-23T03:52:22;2.90;99.90
52731;DHT22;38624;53.242;6.974;2023-01-23T03:54:47;3.00;99.90
52731;DHT22;38624;53.242;6.974;2023-01-23T03:57:13;2.50;99.90
52731;DHT22;38624;53.242;6.974;2023-01-23T03:59:38;3.40;99.90
52731;DHT22;38624;53.242;6.974;2023-01-23T04:02:04;2.90;99.90
52731;DHT22;38624;53.242;6.974;2023-01-23T04:04:31;2.50;99.90
52731;DHT22;38624;53.242;6.974;2023-01-23T04:06:57;2.50;99.90
52731;DHT22;38624;53.242;6.974;2023-01-23T04:09:22;2.50;99.90
52731;DHT22;38624;53.242;6.974;2023-01-23T04:11:55;3.60;99.90
52731;DHT22;38624;53.242;6.974;2023-01-23T04:14:21;3.20;99.90
52731;DHT22;38624;53.242;6.974;2023-01-23T04:16:47;2.60;99.90
52731;DHT22;38624;53.242;6.974;2023-01-23T04:19:12;3.30;99.90
52731;DHT22;38624;53.242;6.974;2023-01-23T04:21:38;2.60;99.90
52731;DHT22;38624;53.242;6.974;2023-01-23T04:24:03;2.50;99.90
52731;DHT22;38624;53.242;6.974;2023-01-23T04:26:29;2.60;99.90
52731;DHT22;38624;53.242;6.974;2023-01-23T04:28:55;2.60;99.90
52731;DHT22;38624;53.242;6.974;2023-01-23T04:31:20;3.20;99.90
52731;DHT22;38624;53.242;6.974;2023-01-23T04:33:46;2.80;99.90
52731;DHT22;38624;53.242;6.974;2023-01-23T04:36:11;2.70;99.90
52731;DHT22;38624;53.242;6.974;2023-01-23T04:38:37;2.50;99.90
52731;DHT22;38624;53.242;6.974;2023-01-23T04:41:03;2.80;99.90
52731;DHT22;38624;53.242;6.974;2023-01-23T04:43:28;2.50;99.90
52731;DHT22;38624;53.242;6.974;2023-01-23T04:45:55;2.60;99.90
52731;DHT22;38624;53.242;6.974;2023-01-23T04:48:21;2.50;99.90
52731;DHT22;38624;53.242;6.974;2023-01-23T04:50:48;3.10;99.90
52731;DHT22;38624;53.242;6.974;2023-01-23T04:53:13;2.60;99.90
52731;DHT22;38624;53.242;6.974;2023-01-23T04:55:39;3.40;99.90
52731;DHT22;38624;53.242;6.974;2023-01-23T04:58:05;3.30;99.90
52731;DHT22;38624;53.242;6.974;2023-01-23T05:00:30;2.70;99.90
52731;DHT22;38624;53.242;6.974;2023-01-23T05:02:56;2.50;99.90
52731;DHT22;38624;53.242;6.974;2023-01-23T05:05:22;3.70;99.90
52731;DHT22;38624;53.242;6.974;2023-01-23T05:07:48;2.60;99.90
52731;DHT22;38624;53.242;6.974;2023-01-23T05:10:14;3.40;99.90
52731;DHT22;38624;53.242;6.974;2023-01-23T05:12:39;2.60;99.90
52731;DHT22;38624;53.242;6.974;2023-01-23T05:15:05;2.60;99.90
52731;DHT22;38624;53.242;6.974;2023-01-23T05:17:31;2.60;99.90
52731;DHT22;38624;53.242;6.974;2023-01-23T05:19:57;2.60;99.90
52731;DHT22;38624;53.242;6.974;2023-01-23T05:22:22;2.70;99.90
52731;DHT22;38624;53.242;6.974;2023-01-23T05:24:48;2.90;99.90
52731;DHT22;38624;53.242;6.974;2023-01-23T05:27:13;3.30;99.90
52731;DHT22;38624;53.242;6.974;2023-01-23T05:29:39;3.60;99.90
52731;DHT22;38624;53.242;6.974;2023-01-23T05:32:04;2.50;99.90
52731;DHT22;38624;53.242;6.974;2023-01-23T05:34:30;2.50;99.90
52731;DHT22;38624;53.242;6.974;2023-01-23T05:36:56;2.50;99.90
52731;DHT22;38624;53.242;6.974;2023-01-23T05:39:21;2.70;99.90
52731;DHT22;38624;53.242;6.974;2023-01-23T05:41:47;2.50;99.90
52731;DHT22;38624;53.242;6.974;2023-01-23T05:44:12;2.50;99.90
52731;DHT22;38624;53.242;6.974;2023-01-23T05:46:38;2.50;99.90
52731;DHT22;38624;53.242;6.974;2023-01-23T05:49:04;3.20;99.90
52731;DHT22;38624;53.242;6.974;2023-01-23T05:51:29;3.30;99.90
52731;DHT22;38624;53.242;6.974;2023-01-23T05:53:58;2.50;99.90
52731;DHT22;38624;53.242;6.974;2023-01-23T05:56:24;2.50;99.90
52731;DHT22;38624;53.242;6.974;2023-01-23T05:58:50;2.50;99.90
52731;DHT22;38624;53.242;6.974;2023-01-23T06:01:16;3.30;99.90
52731;DHT22;38624;53.242;6.974;2023-01-23T06:03:42;2.50;99.90
52731;DHT22;38624;53.242;6.974;2023-01-23T06:06:07;3.10;99.90
52731;DHT22;38624;53.242;6.974;2023-01-23T06:08:33;2.50;99.90
52731;DHT22;38624;53.242;6.974;2023-01-23T06:10:59;2.50;99.90
52731;DHT22;38624;53.242;6.974;2023-01-23T06:13:25;3.40;99.90
52731;DHT22;38624;53.242;6.974;2023-01-23T06:15:51;2.70;99.90
52731;DHT22;38624;53.242;6.974;2023-01-23T06:18:16;3.10;99.90
52731;DHT22;38624;53.242;6.974;2023-01-23T06:20:42;3.10;99.90
52731;DHT22;38624;53.242;6.974;2023-01-23T06:23:08;2.40;99.90
52731;DHT22;38624;53.242;6.974;2023-01-23T06:25:34;3.20;99.90
52731;DHT22;38624;53.242;6.974;2023-01-23T06:28:00;3.20;99.90
52731;DHT22;38624;53.242;6.974;2023-01-23T06:30:26;2.50;99.90
52731;DHT22;38624;53.242;6.974;2023-01-23T06:32:51;3.00;99.90
52731;DHT22;38624;53.242;6.974;2023-01-23T06:35:17;2.50;99.90
52731;DHT22;38624;53.242;6.974;2023-01-23T06:37:42;2.80;99.90
52731;DHT22;38624;53.242;6.974;2023-01-23T06:40:08;3.50;99.90
52731;DHT22;38624;53.242;6.974;2023-01-23T06:42:38;2.50;99.90
52731;DHT22;38624;53.242;6.974;2023-01-23T06:45:04;2.50;99.90
52731;DHT22;38624;53.242;6.974;2023-01-23T06:47:30;2.40;99.90
52731;DHT22;38624;53.242;6.974;2023-01-23T06:49:56;2.50;99.90
52731;DHT22;38624;53.242;6.974;2023-01-23T06:52:21;2.40;99.90
52731;DHT22;38624;53.242;6.974;2023-01-23T06:54:47;2.80;99.90
52731;DHT22;38624;53.242;6.974;2023-01-23T06:57:13;3.10;99.90
52731;DHT22;38624;53.242;6.974;2023-01-23T06:59:38;2.40;99.90
52731;DHT22;38624;53.242;6.974;2023-01-23T07:02:04;2.40;99.90
52731;DHT22;38624;53.242;6.974;2023-01-23T07:04:29;2.40;99.90
52731;DHT22;38624;53.242;6.974;2023-01-23T07:06:55;2.40;99.90
52731;DHT22;38624;53.242;6.974;2023-01-23T07:09:20;2.90;99.90
52731;DHT22;38624;53.242;6.974;2023-01-23T07:11:46;3.50;99.90
52731;DHT22;38624;53.242;6.974;2023-01-23T07:14:11;2.60;99.90
52731;DHT22;38624;53.242;6.974;2023-01-23T07:16:37;3.60;99.90
52731;DHT22;38624;53.242;6.974;2023-01-23T07:19:03;3.30;99.90
52731;DHT22;38624;53.242;6.974;2023-01-23T07:21:30;2.40;99.90
52731;DHT22;38624;53.242;6.974;2023-01-23T07:23:55;3.40;99.90
52731;DHT22;38624;53.242;6.974;2023-01-23T07:26:21;3.00;99.90
52731;DHT22;38624;53.242;6.974;2023-01-23T07:28:46;2.70;99.90
52731;DHT22;38624;53.242;6.974;2023-01-23T07:31:12;2.40;99.90
52731;DHT22;38624;53.242;6.974;2023-01-23T07:33:38;2.30;99.90
52731;DHT22;38624;53.242;6.974;2023-01-23T07:36:04;3.00;99.90
52731;DHT22;38624;53.242;6.974;2023-01-23T07:38:30;3.00;99.90
52731;DHT22;38624;53.242;6.974;2023-01-23T07:40:56;3.00;99.90
52731;DHT22;38624;53.242;6.974;2023-01-23T07:43:22;2.40;99.90
52731;DHT22;38624;53.242;6.974;2023-01-23T07:45:47;3.20;99.90
52731;DHT22;38624;53.242;6.974;2023-01-23T07:48:14;2.40;99.90
52731;DHT22;38624;53.242;6.974;2023-01-23T07:50:40;2.40;99.90
52731;DHT22;38624;53.242;6.974;2023-01-23T07:53:05;2.40;99.90
52731;DHT22;38624;53.242;6.974;2023-01-23T07:55:31;2.40;99.90
52731;DHT22;38624;53.242;6.974;2023-01-23T07:57:57;3.30;99.90
52731;DHT22;38624;53.242;6.974;2023-01-23T08:00:22;3.70;99.90
52731;DHT22;38624;53.242;6.974;2023-01-23T08:02:48;2.40;99.90
52731;DHT22;38624;53.242;6.974;2023-01-23T08:05:13;2.80;99.90
52731;DHT22;38624;53.242;6.974;2023-01-23T08:07:39;3.20;99.90
52731;DHT22;38624;53.242;6.974;2023-01-23T08:10:05;3.00;99.90
52731;DHT22;38624;53.242;6.974;2023-01-23T08:12:31;2.50;99.90
52731;DHT22;38624;53.242;6.974;2023-01-23T08:14:57;2.50;99.90
52731;DHT22;38624;53.242;6.974;2023-01-23T08:17:22;3.60;99.90
52731;DHT22;38624;53.242;6.974;2023-01-23T08:19:48;2.50;99.90
52731;DHT22;38624;53.242;6.974;2023-01-23T08:22:13;2.80;99.90
52731;DHT22;38624;53.242;6.974;2023-01-23T08:24:39;3.00;99.90
52731;DHT22;38624;53.242;6.974;2023-01-23T08:27:05;3.90;99.90
52731;DHT22;38624;53.242;6.974;2023-01-23T08:29:31;2.60;99.90
52731;DHT22;38624;53.242;6.974;2023-01-23T08:31:56;2.60;99.90
52731;DHT22;38624;53.242;6.974;2023-01-23T08:34:22;2.70;99.90
52731;DHT22;38624;53.242;6.974;2023-01-23T08:36:48;2.70;99.90
52731;DHT22;38624;53.242;6.974;2023-01-23T08:39:17;2.70;99.90
52731;DHT22;38624;53.242;6.974;2023-01-23T08:41:44;2.80;99.90
52731;DHT22;38624;53.242;6.974;2023-01-23T08:44:10;2.70;99.90
52731;DHT22;38624;53.242;6.974;2023-01-23T08:46:35;2.80;99.90
52731;DHT22;38624;53.242;6.974;2023-01-23T08:49:01;3.10;99.90
52731;DHT22;38624;53.242;6.974;2023-01-23T08:51:29;2.80;99.90
52731;DHT22;38624;53.242;6.974;2023-01-23T08:53:54;2.80;99.90
52731;DHT22;38624;53.242;6.974;2023-01-23T08:56:20;3.60;99.90
52731;DHT22;38624;53.242;6.974;2023-01-23T08:58:47;3.20;99.90
52731;DHT22;38624;53.242;6.974;2023-01-23T09:01:13;2.80;99.90
52731;DHT22;38624;53.242;6.974;2023-01-23T09:03:39;2.90;99.90
52731;DHT22;38624;53.242;6.974;2023-01-23T09:06:05;2.90;99.90
52731;DHT22;38624;53.242;6.974;2023-01-23T09:08:31;2.90;99.90
52731;DHT22;38624;53.242;6.974;2023-01-23T09:11:04;3.20;99.90
52731;DHT22;38624;53.242;6.974;2023-01-23T09:13:30;2.90;99.90
52731;DHT22;38624;53.242;6.974;2023-01-23T09:15:56;3.70;99.90
52731;DHT22;38624;53.242;6.974;2023-01-23T09:18:21;3.00;99.90
52731;DHT22;38624;53.242;6.974;2023-01-23T09:20:49;3.50;99.90
52731;DHT22;38624;53.242;6.974;2023-01-23T09:23:14;2.90;99.90
52731;DHT22;38624;53.242;6.974;2023-01-23T09:25:40;3.00;99.90
52731;DHT22;38624;53.242;6.974;2023-01-23T09:28:05;3.00;99.90
52731;DHT22;38624;53.242;6.974;2023-01-23T09:30:31;3.60;99.90
52731;DHT22;38624;53.242;6.974;2023-01-23T09:32:57;3.00;99.90
52731;DHT22;38624;53.242;6.974;2023-01-23T09:35:22;3.00;99.90
52731;DHT22;38624;53.242;6.974;2023-01-23T09:37:48;3.00;99.90
52731;DHT22;38624;53.242;6.974;2023-01-23T09:40:27;3.10;99.90
52731;DHT22;38624;53.242;6.974;2023-01-23T09:42:53;3.80;99.90
52731;DHT22;38624;53.242;6.974;2023-01-23T09:45:21;3.90;99.90
52731;DHT22;38624;53.242;6.974;2023-01-23T09:50:19;3.20;99.90
52731;DHT22;38624;53.242;6.974;2023-01-23T09:52:49;3.10;99.90
52731;DHT22;38624;53.242;6.974;2023-01-23T09:57:51;3.20;99.90
52731;DHT22;38624;53.242;6.974;2023-01-23T10:00:21;3.30;99.90
52731;DHT22;38624;53.242;6.974;2023-01-23T10:02:48;3.30;99.90
52731;DHT22;38624;53.242;6.974;2023-01-23T10:05:17;3.60;99.90
52731;DHT22;38624;53.242;6.974;2023-01-23T10:07:44;3.30;99.90
52731;DHT22;38624;53.242;6.974;2023-01-23T10:15:37;3.40;99.90
52731;DHT22;38624;53.242;6.974;2023-01-23T10:18:23;3.40;99.90
52731;DHT22;38624;53.242;6.974;2023-01-23T10:20:53;3.40;99.90
52731;DHT22;38624;53.242;6.974;2023-01-23T10:23:25;3.40;99.90
52731;DHT22;38624;53.242;6.974;2023-01-23T10:25:56;3.40;99.90
52731;DHT22;38624;53.242;6.974;2023-01-23T10:28:25;3.90;99.90
52731;DHT22;38624;53.242;6.974;2023-01-23T10:30:55;3.40;99.90
52731;DHT22;38624;53.242;6.974;2023-01-23T10:33:25;3.40;99.90
52731;DHT22;38624;53.242;6.974;2023-01-23T10:36:00;3.50;99.90
52731;DHT22;38624;53.242;6.974;2023-01-23T10:38:28;3.50;99.90
52731;DHT22;38624;53.242;6.974;2023-01-23T10:40:56;3.50;99.90
52731;DHT22;38624;53.242;6.974;2023-01-23T10:43:51;3.60;99.90
52731;DHT22;38624;53.242;6.974;2023-01-23T10:46:18;3.50;99.90
52731;DHT22;38624;53.242;6.974;2023-01-23T10:48:51;3.50;99.90
52731;DHT22;38624;53.242;6.974;2023-01-23T10:56:33;3.50;99.90
52731;DHT22;38624;53.242;6.974;2023-01-23T10:59:00;3.60;99.90
52731;DHT22;38624;53.242;6.974;2023-01-23T11:01:35;3.60;99.90
52731;DHT22;38624;53.242;6.974;2023-01-23T11:04:17;3.60;99.90
52731;DHT22;38624;53.242;6.974;2023-01-23T11:06:43;3.70;99.90
52731;DHT22;38624;53.242;6.974;2023-01-23T11:09:18;3.70;99.90
52731;DHT22;38624;53.242;6.974;2023-01-23T11:11:45;3.80;99.90
52731;DHT22;38624;53.242;6.974;2023-01-23T11:14:23;3.80;99.90
52731;DHT22;38624;53.242;6.974;2023-01-23T11:16:58;3.90;99.90
52731;DHT22;38624;53.242;6.974;2023-01-23T11:19:24;3.90;99.90
52731;DHT22;38624;53.242;6.974;2023-01-23T11:21:54;3.90;99.90
52731;DHT22;38624;53.242;6.974;2023-01-23T11:27:04;4.00;99.90
52731;DHT22;38624;53.242;6.974;2023-01-23T11:32:24;4.00;99.90
52731;DHT22;38624;53.242;6.974;2023-01-23T11:34:50;4.00;99.90
52731;DHT22;38624;53.242;6.974;2023-01-23T11:37:29;4.40;99.90
52731;DHT22;38624;53.242;6.974;2023-01-23T11:39:58;4.10;99.90
52731;DHT22;38624;53.242;6.974;2023-01-23T11:42:25;4.90;99.90
52731;DHT22;38624;53.242;6.974;2023-01-23T11:44:51;4.20;99.90
52731;DHT22;38624;53.242;6.974;2023-01-23T11:55:08;4.60;99.90
52731;DHT22;38624;53.242;6.974;2023-01-23T12:00:23;4.30;99.90
52731;DHT22;38624;53.242;6.974;2023-01-23T12:08:05;4.30;99.90
52731;DHT22;38624;53.242;6.974;2023-01-23T12:10:46;4.40;99.90
52731;DHT22;38624;53.242;6.974;2023-01-23T12:15:42;4.30;99.90
52731;DHT22;38624;53.242;6.974;2023-01-23T12:18:19;4.30;99.90
52731;DHT22;38624;53.242;6.974;2023-01-23T12:21:51;4.30;99.90
52731;DHT22;38624;53.242;6.974;2023-01-23T12:31:00;4.30;99.90
52731;DHT22;38624;53.242;6.974;2023-01-23T12:38:38;4.30;99.90
52731;DHT22;38624;53.242;6.974;2023-01-23T12:46:08;4.60;99.90
52731;DHT22;38624;53.242;6.974;2023-01-23T12:48:42;4.20;99.90
52731;DHT22;38624;53.242;6.974;2023-01-23T12:51:11;4.20;99.90
52731;DHT22;38624;53.242;6.974;2023-01-23T12:53:39;4.20;99.90
52731;DHT22;38624;53.242;6.974;2023-01-23T12:58:33;4.20;99.90
52731;DHT22;38624;53.242;6.974;2023-01-23T13:11:56;4.10;99.90
52731;DHT22;38624;53.242;6.974;2023-01-23T13:16:55;4.10;99.90
52731;DHT22;38624;53.242;6.974;2023-01-23T13:22:24;4.20;99.90
52731;DHT22;38624;53.242;6.974;2023-01-23T13:24:51;4.10;99.90
52731;DHT22;38624;53.242;6.974;2023-01-23T13:32:46;3.90;99.90
52731;DHT22;38624;53.242;6.974;2023-01-23T13:37:57;4.00;99.90
52731;DHT22;38624;53.242;6.974;2023-01-23T13:40:23;4.80;99.90
52731;DHT22;38624;53.242;6.974;2023-01-23T13:42:48;4.40;99.90
52731;DHT22;38624;53.242;6.974;2023-01-23T13:45:24;3.90;99.90
52731;DHT22;38624;53.242;6.974;2023-01-23T13:48:14;4.00;99.90
52731;DHT22;38624;53.242;6.974;2023-01-23T13:51:08;4.00;99.90
52731;DHT22;38624;53.242;6.974;2023-01-23T13:53:41;4.10;99.90
52731;DHT22;38624;53.242;6.974;2023-01-23T13:56:25;4.20;99.90
52731;DHT22;38624;53.242;6.974;2023-01-23T13:59:14;4.20;99.90
52731;DHT22;38624;53.242;6.974;2023-01-23T14:01:46;4.00;99.90
52731;DHT22;38624;53.242;6.974;2023-01-23T14:04:31;4.10;99.90
52731;DHT22;38624;53.242;6.974;2023-01-23T14:10:18;4.00;99.90
52731;DHT22;38624;53.242;6.974;2023-01-23T14:12:44;4.10;99.90
52731;DHT22;38624;53.242;6.974;2023-01-23T14:15:17;4.90;99.90
52731;DHT22;38624;53.242;6.974;2023-01-23T14:18:02;4.10;99.90
52731;DHT22;38624;53.242;6.974;2023-01-23T14:20:30;4.20;99.90
52731;DHT22;38624;53.242;6.974;2023-01-23T14:22:56;4.20;99.90
52731;DHT22;38624;53.242;6.974;2023-01-23T14:25:21;4.00;99.90
52731;DHT22;38624;53.242;6.974;2023-01-23T14:27:47;4.00;99.90
52731;DHT22;38624;53.242;6.974;2023-01-23T14:30:14;4.40;99.90
52731;DHT22;38624;53.242;6.974;2023-01-23T14:32:40;4.00;99.90
52731;DHT22;38624;53.242;6.974;2023-01-23T14:38:03;4.00;99.90
52731;DHT22;38624;53.242;6.974;2023-01-23T14:40:29;4.30;99.90
52731;DHT22;38624;53.242;6.974;2023-01-23T14:42:57;4.00;99.90
52731;DHT22;38624;53.242;6.974;2023-01-23T14:45:23;4.00;99.90
52731;DHT22;38624;53.242;6.974;2023-01-23T14:47:52;3.90;99.90
52731;DHT22;38624;53.242;6.974;2023-01-23T14:50:18;3.90;99.90
52731;DHT22;38624;53.242;6.974;2023-01-23T14:52:55;3.90;99.90
52731;DHT22;38624;53.242;6.974;2023-01-23T14:55:21;4.70;99.90
52731;DHT22;38624;53.242;6.974;2023-01-23T14:57:48;3.90;99.90
52731;DHT22;38624;53.242;6.974;2023-01-23T15:00:17;3.90;99.90
52731;DHT22;38624;53.242;6.974;2023-01-23T15:02:43;3.90;99.90
52731;DHT22;38624;53.242;6.974;2023-01-23T15:07:46;4.00;99.90
52731;DHT22;38624;53.242;6.974;2023-01-23T15:10:14;3.80;99.90
52731;DHT22;38624;53.242;6.974;2023-01-23T15:12:45;3.90;99.90
52731;DHT22;38624;53.242;6.974;2023-01-23T15:15:18;4.40;99.90
52731;DHT22;38624;53.242;6.974;2023-01-23T15:17:44;3.90;99.90
52731;DHT22;38624;53.242;6.974;2023-01-23T15:22:51;3.80;99.90
52731;DHT22;38624;53.242;6.974;2023-01-23T15:25:27;3.80;99.90
52731;DHT22;38624;53.242;6.974;2023-01-23T15:27:53;3.80;99.90
52731;DHT22;38624;53.242;6.974;2023-01-23T15:32:53;3.70;99.90
52731;DHT22;38624;53.242;6.974;2023-01-23T15:35:19;3.80;99.90
52731;DHT22;38624;53.242;6.974;2023-01-23T15:37:48;3.70;99.90
52731;DHT22;38624;53.242;6.974;2023-01-23T15:40:14;3.60;99.90
52731;DHT22;38624;53.242;6.974;2023-01-23T15:42:41;3.60;99.90
52731;DHT22;38624;53.242;6.974;2023-01-23T15:45:12;3.60;99.90
52731;DHT22;38624;53.242;6.974;2023-01-23T15:47:37;3.60;99.90
52731;DHT22;38624;53.242;6.974;2023-01-23T15:50:03;3.60;99.90
52731;DHT22;38624;53.242;6.974;2023-01-23T15:52:44;3.60;99.90
52731;DHT22;38624;53.242;6.974;2023-01-23T15:55:10;3.50;99.90
52731;DHT22;38624;53.242;6.974;2023-01-23T15:57:36;4.00;99.90
52731;DHT22;38624;53.242;6.974;2023-01-23T16:00:10;3.50;99.90
52731;DHT22;38624;53.242;6.974;2023-01-23T16:02:37;3.50;99.90
52731;DHT22;38624;53.242;6.974;2023-01-23T16:05:03;3.50;99.90
52731;DHT22;38624;53.242;6.974;2023-01-23T16:07:41;3.50;99.90
52731;DHT22;38624;53.242;6.974;2023-01-23T16:10:16;3.40;99.90
52731;DHT22;38624;53.242;6.974;2023-01-23T16:12:42;3.40;99.90
52731;DHT22;38624;53.242;6.974;2023-01-23T16:15:20;3.90;99.90
52731;DHT22;38624;53.242;6.974;2023-01-23T16:17:47;3.40;99.90
52731;DHT22;38624;53.242;6.974;2023-01-23T16:20:14;3.40;99.90
52731;DHT22;38624;53.242;6.974;2023-01-23T16:22:40;3.30;99.90
52731;DHT22;38624;53.242;6.974;2023-01-23T16:25:05;3.30;99.90
52731;DHT22;38624;53.242;6.974;2023-01-23T16:27:31;3.30;99.90
52731;DHT22;38624;53.242;6.974;2023-01-23T16:29:57;3.30;99.90
52731;DHT22;38624;53.242;6.974;2023-01-23T16:32:23;3.70;99.90
52731;DHT22;38624;53.242;6.974;2023-01-23T16:34:49;3.30;99.90
52731;DHT22;38624;53.242;6.974;2023-01-23T16:37:15;4.00;99.90
52731;DHT22;38624;53.242;6.974;2023-01-23T16:39:41;3.30;99.90
52731;DHT22;38624;53.242;6.974;2023-01-23T16:42:13;3.30;99.90
52731;DHT22;38624;53.242;6.974;2023-01-23T16:44:39;3.20;99.90
52731;DHT22;38624;53.242;6.974;2023-01-23T16:47:04;4.20;99.90
52731;DHT22;38624;53.242;6.974;2023-01-23T16:49:30;3.30;99.90
52731;DHT22;38624;53.242;6.974;2023-01-23T16:51:56;3.20;99.90
52731;DHT22;38624;53.242;6.974;2023-01-23T16:54:22;4.00;99.90
52731;DHT22;38624;53.242;6.974;2023-01-23T16:56:48;3.60;99.90
52731;DHT22;38624;53.242;6.974;2023-01-23T16:59:18;3.70;99.90
52731;DHT22;38624;53.242;6.974;2023-01-23T17:01:46;3.30;99.90
52731;DHT22;38624;53.242;6.974;2023-01-23T17:04:13;3.20;99.90
52731;DHT22;38624;53.242;6.974;2023-01-23T17:06:39;3.20;99.90
52731;DHT22;38624;53.242;6.974;2023-01-23T17:09:05;3.20;99.90
52731;DHT22;38624;53.242;6.974;2023-01-23T17:11:31;3.20;99.90
52731;DHT22;38624;53.242;6.974;2023-01-23T17:14:00;3.70;99.90
52731;DHT22;38624;53.242;6.974;2023-01-23T17:16:27;4.00;99.90
52731;DHT22;38624;53.242;6.974;2023-01-23T17:18:52;3.60;99.90
52731;DHT22;38624;53.242;6.974;2023-01-23T17:21:19;3.20;99.90
52731;DHT22;38624;53.242;6.974;2023-01-23T17:23:45;3.60;99.90
52731;DHT22;38624;53.242;6.974;2023-01-23T17:26:17;3.80;99.90
52731;DHT22;38624;53.242;6.974;2023-01-23T17:28:43;3.20;99.90
52731;DHT22;38624;53.242;6.974;2023-01-23T17:31:12;4.00;99.90
52731;DHT22;38624;53.242;6.974;2023-01-23T17:33:39;3.60;99.90
52731;DHT22;38624;53.242;6.974;2023-01-23T17:36:05;3.90;99.90